METAR Data
IDs: Format: Raw Decoded Include TAF

Data at: 0241 UTC 25 Jan 2020

PAOT 250153Z 34023KT 10SM CLR M21/M26 A3023 RMK AO2 SLP237 T12111261
PAOT 250053Z 33018KT 10SM CLR M21/M26 A3023 RMK AO2 SLP236 T12111261
PAOT 242353Z 32018KT 10SM CLR M21/M26 A3023 RMK AO2 PK WND 32026/2342 SLP238 T12061261 11206 21217 50002
PAOT 242253Z 35016KT 10SM CLR M22/M26 A3024 RMK AO2 SLP239 T12171261
PAOT 242153Z 33012KT 10SM CLR M22/M26 A3023 RMK AO2 SLP237 T12171261
PAOT 242053Z 33015KT 10SM CLR M22/M26 A3023 RMK AO2 SLP236 T12171261 50002
PAOT 241953Z 34015KT 10SM CLR M21/M26 A3023 RMK AO2 SLP237 T12111261
PAOT 241853Z 33015KT 10SM CLR M21/M26 A3022 RMK AO2 SLP235 T12111261
PAOT 241753Z 33015KT 10SM CLR M21/M26 A3022 RMK AO2 SLP235 T12111261 11200 21228 51004
PAOT 241653Z 32012KT 10SM CLR M21/M26 A3022 RMK AO2 SLP233 T12111261
PAOT 241553Z 34017KT 10SM CLR M21/M26 A3022 RMK AO2 SLP234 T12061261
PAOT 241453Z AUTO 33021KT 10SM CLR M21/M26 A3021 RMK AO2 SLP230 T12061261 50000 TSNO
PAOT 241353Z AUTO 00000KT 10SM CLR M22/M26 A3023 RMK AO2 SLP238 T12171256 TSNO
PAOT 241253Z AUTO 35004KT 10SM CLR M23/M27 A3023 RMK AO2 SLP236 T12281267 TSNO
PAOT 241153Z AUTO 31014KT 10SM CLR M22/M26 A3021 RMK AO2 SLP230 T12171261 11217 21233 50009 TSNO
PAOT 241053Z AUTO 34009KT 10SM CLR M22/M26 A3022 RMK AO2 SLP233 T12221261 TSNO
PAOT 240953Z AUTO 30010KT 10SM CLR M23/M26 A3021 RMK AO2 SLP230 T12281261 TSNO
PAOT 240853Z 31014KT 10SM CLR M23/M26 A3019 RMK AO2 SLP222 T12281261 411721233 50006
PAOT 240753Z 30014KT 10SM CLR M23/M27 A3019 RMK AO2 SLP222 T12331267
PAOT 240653Z 28013KT 10SM CLR M23/M26 A3017 RMK AO2 SLP218 T12331261
PAOT 240553Z 30014KT 10SM CLR M23/M26 A3017 RMK AO2 SLP216 T12331261 11211 21233 51009
PAOT 240453Z 30014KT 10SM CLR M23/M26 A3017 RMK AO2 SLP215 T12331261
PAOT 240353Z 31015KT 10SM CLR M23/M26 A3015 RMK AO2 SLP211 T12281261
PAOT 240253Z 30020KT 10SM CLR M23/M26 A3014 RMK AO2 PK WND 31026/0210 SLP207 T12281256 51012
PAOT 240153Z 31019KT 10SM CLR M22/M25 A3013 RMK AO2 SLP203 T12221250
PAOT 240053Z 31021KT 10SM CLR M22/M24 A3012 RMK AO2 PK WND 31027/0022 SLP200 T12171244
PAOT 232353Z 30023KT 10SM FEW070 M21/M24 A3011 RMK AO2 PK WND 30026/2347 SLP195 60000 T12111244 11183 21211 53012
PAOT 232253Z 30021KT 10SM SCT080 M21/M23 A3010 RMK AO2 SLP192 T12061233
PAOT 232153Z 31018KT 10SM SCT080 M20/M23 A3008 RMK AO2 SLP186 T12001228
PAOT 232133Z 31018KT 10SM SCT080 M20/M22 A3008 RMK AO2 T12001222
PAOT 232053Z COR 30019KT 8SM SCT080 M19/M22 A3007 RMK AO2 SLP184 60000 T11941222 53020
PAOT 231953Z 31014KT 10SM CLR M20/M23 A3005 RMK AO2 SLP176 T12001228
PAOT 231853Z 31017KT 5SM HZ OVC080 M19/M22 A3003 RMK AO2 UPB01E14 SLP169 P0000 T11891217
PAOT 231753Z 31016KT 5SM BR OVC080 M18/M21 A3002 RMK AO2 SLP164 60000 T11831206 11172 21183 51012
PAOT 231653Z 31016KT 10SM OVC080 M18/M20 A3000 RMK AO2 SLP159 T11781200
PAOT 231553Z AUTO 30008KT 10SM OVC085 M17/M19 A3000 RMK AO2 SNB1458E14 SLP157 P0000 T11721189 TSNO
PAOT 231540Z AUTO 29007KT 10SM SCT022 OVC085 M17/M19 A2999 RMK AO2 SNB1458E14 P0000 T11721194 TSNO
PAOT 231513Z AUTO 28005KT 8SM -SN BKN024 OVC085 M17/M19 A2999 RMK AO2 SNB1458 P0000 T11721194 TSNO
PAOT 231453Z AUTO 28004KT 10SM FEW017 SCT024 OVC085 M17/M19 A2998 RMK AO2 SNE43 SLP152 P0000 60000 T11721194 51013 TSNO